Time;durP1;ratioP1;P1;durP2;ratioP2;P2;SDS_P1;SDS_P2;PMS_P1;PMS_P2;Temp;Humidity;BMP_temperature;BMP_pressure;BME280_temperature;BME280_humidity;BME280_pressure;Samples;Min_cycle;Max_cycle;Signal;HPM_P1;HPM_P2
2023/08/09 00:00:32;;;;;;;;;;;;;;;;;;6307053;28;19921;-54
2023/08/09 00:03:52;;;;;;;;;;;;;;;;;;6306021;28;21080;-55
2023/08/09 00:06:53;;;;;;;;;;;;;;;;;;6311555;28;19924;-53
2023/08/09 00:09:53;;;;;;;;;;;;;;;;;;6306447;28;20344;-57
2023/08/09 00:12:54;;;;;;;;;;;;;;;;;;6308393;28;19983;-56
2023/08/09 00:15:54;;;;;;;;;;;;;;;;;;6307561;28;19942;-55
2023/08/09 00:18:55;;;;;;;;;;;;;;;;;;6310461;28;21292;-54
2023/08/09 00:21:55;;;;;;;;;;;;;;;;;;6307043;28;19928;-55
2023/08/09 00:24:56;;;;;;;;;;;;;;;;;;6304130;28;19954;-56
2023/08/09 00:27:57;;;;;;;;;;;;;;;;;;6309114;28;19924;-54
2023/08/09 00:30:58;;;;;;;;;;;;;;;;;;6310936;28;19927;-55
2023/08/09 00:33:58;;;;;;;;;;;;;;;;;;6307766;28;19927;-55
2023/08/09 00:36:59;;;;;;;;;;;;;;;;;;6306707;28;19924;-55
2023/08/09 00:40:00;;;;;;;;;;;;;;;;;;6309669;28;19924;-57
2023/08/09 00:43:00;;;;;;;;;;;;;;;;;;6307891;28;19929;-53
2023/08/09 00:46:01;;;;;;;;;;;;;;;;;;6305136;28;19928;-54
2023/08/09 00:49:02;;;;;;;;;;;;;;;;;;6306635;28;19924;-52
2023/08/09 00:52:03;;;;;;;;;;;;;;;;;;6308462;28;20374;-56
2023/08/09 00:55:04;;;;;;;;;;;;;;;;;;6306051;28;20347;-56
2023/08/09 00:58:05;;;;;;;;;;;;;;;;;;6311722;28;19928;-58
2023/08/09 01:01:06;;;;;;;;;;;;;;;;;;6304650;28;19973;-57
2023/08/09 01:04:06;;;;;;;;;;;;;;;;;;6301577;28;20008;-54
2023/08/09 01:07:19;;;;;;;;;;;;;;;;;;6310643;28;19938;-56
2023/08/09 01:10:26;;;;;;;;;;;;;;;;;;6304523;28;20018;-56
2023/08/09 01:13:28;;;;;;;;;;;;;;;;;;6304967;28;19934;-54
2023/08/09 01:16:28;;;;;;;;;;;;;;;;;;6303702;28;19920;-57
2023/08/09 01:19:37;;;;;;;;;;;;;;;;;;6305033;28;19920;-56
2023/08/09 01:22:40;;;;;;;;;;;;;;;;;;6304217;28;19927;-54
2023/08/09 01:25:41;;;;;;;;;;;;;;;;;;6305943;28;19930;-55
2023/08/09 01:28:41;;;;;;;;;;;;;;;;;;6287853;28;19923;-56
2023/08/09 01:31:42;;;;;;;;;;;;;;;;;;6309248;28;19924;-55
2023/08/09 01:34:42;;;;;;;;;;;;;;;;;;6306092;28;20722;-53
2023/08/09 01:37:52;;;;;;;;;;;;;;;;;;6308841;28;20309;-55
2023/08/09 01:40:53;;;;;;;;;;;;;;;;;;6295487;28;19935;-56
2023/08/09 01:43:55;;;;;;;;;;;;;;;;;;6297411;28;19934;-55
2023/08/09 01:46:56;;;;;;;;;;;;;;;;;;6295902;28;19982;-54
2023/08/09 01:49:57;;;;;;;;;;;;;;;;;;6276131;28;19973;-56
2023/08/09 01:52:58;;;;;;;;;;;;;;;;;;6297598;28;19936;-55
2023/08/09 01:55:59;;;;;;;;;;;;;;;;;;6296422;28;20761;-56
2023/08/09 01:59:00;;;;;;;;;;;;;;;;;;6300532;28;19924;-53
2023/08/09 02:02:01;;;;;;;;;;;;;;;;;;6296563;28;19924;-55
2023/08/09 02:05:01;;;;;;;;;;;;;;;;;;6296785;28;19946;-55
2023/08/09 02:08:04;;;;;;;;;;;;;;;;;;6308020;28;19924;-55
2023/08/09 02:11:04;;;;;;;;;;;;;;;;;;6296017;28;19943;-56
2023/08/09 02:14:05;;;;;;;;;;;;;;;;;;6278527;28;19920;-56
2023/08/09 02:17:05;;;;;;;;;;;;;;;;;;6294946;28;19955;-54
2023/08/09 02:20:06;;;;;;;;;;;;;;;;;;6304165;28;19973;-53
2023/08/09 02:23:08;;;;;;;;;;;;;;;;;;6303276;28;19977;-53
2023/08/09 02:26:09;;;;;;;;;;;;;;;;;;6295413;28;19974;-55
2023/08/09 02:29:09;;;;;;;;;;;;;;;;;;6292358;28;20326;-56
2023/08/09 02:32:10;;;;;;;;;;;;;;;;;;6303073;28;19920;-56
2023/08/09 02:35:10;;;;;;;;;;;;;;;;;;6301306;28;19920;-52
2023/08/09 02:38:11;;;;;;;;;;;;;;;;;;6296224;28;19935;-55
2023/08/09 02:41:11;;;;;;;;;;;;;;;;;;6293927;28;19924;-55
2023/08/09 02:44:12;;;;;;;;;;;;;;;;;;6294173;28;19936;-52
2023/08/09 02:47:12;;;;;;;;;;;;;;;;;;6295534;28;19924;-53
2023/08/09 02:50:13;;;;;;;;;;;;;;;;;;6298458;28;19924;-56
2023/08/09 02:53:17;;;;;;;;;;;;;;;;;;6300852;28;19920;-52
2023/08/09 02:56:17;;;;;;;;;;;;;;;;;;6295928;28;19930;-52
2023/08/09 02:59:18;;;;;;;;;;;;;;;;;;6297488;28;19920;-55
2023/08/09 03:02:19;;;;;;;;;;;;;;;;;;6295699;28;19928;-53
2023/08/09 03:05:19;;;;;;;;;;;;;;;;;;6278346;28;19927;-53
2023/08/09 03:08:20;;;;;;;;;;;;;;;;;;6301265;28;19928;-55
2023/08/09 03:11:24;;;;;;;;;;;;;;;;;;6300159;28;19920;-55
2023/08/09 03:14:25;;;;;;;;;;;;;;;;;;6302324;28;19928;-53
2023/08/09 03:17:25;;;;;;;;;;;;;;;;;;6301383;28;19977;-53
2023/08/09 03:20:27;;;;;;;;;;;;;;;;;;6285938;28;19924;-55
2023/08/09 03:23:27;;;;;;;;;;;;;;;;;;6303190;28;19997;-54
2023/08/09 03:26:28;;;;;;;;;;;;;;;;;;6303869;28;19928;-56
2023/08/09 03:29:28;;;;;;;;;;;;;;;;;;6308989;28;19920;-57
2023/08/09 03:32:29;;;;;;;;;;;;;;;;;;6301730;28;20653;-56
2023/08/09 03:35:30;;;;;;;;;;;;;;;;;;6304027;28;19931;-56
2023/08/09 03:38:30;;;;;;;;;;;;;;;;;;6298496;28;20256;-55
2023/08/09 03:41:31;;;;;;;;;;;;;;;;;;6309194;28;20054;-58
2023/08/09 03:44:31;;;;;;;;;;;;;;;;;;6307057;28;20383;-55
2023/08/09 03:47:32;;;;;;;;;;;;;;;;;;6300253;28;20350;-54
2023/08/09 03:50:32;;;;;;;;;;;;;;;;;;6299276;28;19927;-54
2023/08/09 03:53:33;;;;;;;;;;;;;;;;;;6296073;28;19931;-54
2023/08/09 03:56:33;;;;;;;;;;;;;;;;;;6299431;28;19920;-54
2023/08/09 03:59:36;;;;;;;;;;;;;;;;;;6301249;28;20287;-53
2023/08/09 04:02:36;;;;;;;;;;;;;;;;;;6303096;28;19923;-57
2023/08/09 04:05:37;;;;;;;;;;;;;;;;;;6298618;28;19947;-53
2023/08/09 04:08:38;;;;;;;;;;;;;;;;;;6297142;28;20053;-54
2023/08/09 04:11:38;;;;;;;;;;;;;;;;;;6301032;28;19925;-53
2023/08/09 04:14:39;;;;;;;;;;;;;;;;;;6300103;28;19939;-53
2023/08/09 04:17:39;;;;;;;;;;;;;;;;;;6298203;28;19920;-54
2023/08/09 04:20:40;;;;;;;;;;;;;;;;;;6298390;28;19928;-55
2023/08/09 04:23:41;;;;;;;;;;;;;;;;;;6299991;28;19920;-54
2023/08/09 04:26:41;;;;;;;;;;;;;;;;;;6299726;28;19924;-55
2023/08/09 04:29:41;;;;;;;;;;;;;;;;;;6298902;28;19954;-55
2023/08/09 04:32:42;;;;;;;;;;;;;;;;;;6298066;28;19965;-57
2023/08/09 04:35:43;;;;;;;;;;;;;;;;;;6298903;28;19924;-55
2023/08/09 04:38:44;;;;;;;;;;;;;;;;;;6297063;28;19924;-56
2023/08/09 04:41:44;;;;;;;;;;;;;;;;;;6297146;28;19925;-56
2023/08/09 04:44:45;;;;;;;;;;;;;;;;;;6299268;28;20365;-54
2023/08/09 04:47:47;;;;;;;;;;;;;;;;;;6304208;28;19928;-53
2023/08/09 04:50:48;;;;;;;;;;;;;;;;;;6300024;28;19928;-54
2023/08/09 04:53:48;;;;;;;;;;;;;;;;;;6298880;28;19920;-55
2023/08/09 04:56:49;;;;;;;;;;;;;;;;;;6299536;28;19936;-54
2023/08/09 04:59:49;;;;;;;;;;;;;;;;;;6296725;28;20002;-56
2023/08/09 05:02:50;;;;;;;;;;;;;;;;;;6296233;28;19935;-52
2023/08/09 05:05:51;;;;;;;;;;;;;;;;;;6297446;28;19924;-51
2023/08/09 05:08:52;;;;;;;;;;;;;;;;;;6297634;28;20367;-58
2023/08/09 05:11:52;;;;;;;;;;;;;;;;;;6310201;28;20298;-50
2023/08/09 05:14:53;;;;;;;;;;;;;;;;;;6308578;28;19920;-52
2023/08/09 05:17:53;;;;;;;;;;;;;;;;;;6306107;28;19920;-53
2023/08/09 05:20:54;;;;;;;;;;;;;;;;;;6310981;28;19927;-55
2023/08/09 05:23:54;;;;;;;;;;;;;;;;;;6305970;28;19924;-54
2023/08/09 05:26:54;;;;;;;;;;;;;;;;;;6304799;28;19930;-52
2023/08/09 05:29:55;;;;;;;;;;;;;;;;;;6304382;28;19931;-54
2023/08/09 05:32:58;;;;;;;;;;;;;;;;;;6303398;28;19973;-56
2023/08/09 05:35:59;;;;;;;;;;;;;;;;;;6303140;28;19927;-55
2023/08/09 05:39:00;;;;;;;;;;;;;;;;;;6305585;28;19927;-59
2023/08/09 05:42:00;;;;;;;;;;;;;;;;;;6310289;28;19924;-57
2023/08/09 05:45:01;;;;;;;;;;;;;;;;;;6302715;28;20018;-54
2023/08/09 05:48:02;;;;;;;;;;;;;;;;;;6315427;28;19924;-55
2023/08/09 05:51:02;;;;;;;;;;;;;;;;;;6309566;28;19924;-53
2023/08/09 05:54:03;;;;;;;;;;;;;;;;;;6310798;28;19920;-54
2023/08/09 05:57:04;;;;;;;;;;;;;;;;;;6292595;28;20316;-61
2023/08/09 06:00:05;;;;;;;;;;;;;;;;;;6296287;28;20371;-56
2023/08/09 06:03:07;;;;;;;;;;;;;;;;;;6298001;28;20396;-57
2023/08/09 06:06:07;;;;;;;;;;;;;;;;;;6293116;28;19924;-57
2023/08/09 06:09:09;;;;;;;;;;;;;;;;;;6293588;28;19928;-62
2023/08/09 06:12:10;;;;;;;;;;;;;;;;;;6294591;28;20382;-54
2023/08/09 06:15:11;;;;;;;;;;;;;;;;;;6293610;28;19921;-61
2023/08/09 06:18:11;;;;;;;;;;;;;;;;;;6293321;28;19936;-51
2023/08/09 06:21:12;;;;;;;;;;;;;;;;;;6295411;28;20552;-50
2023/08/09 06:24:12;;;;;;;;;;;;;;;;;;6292667;28;19928;-59
2023/08/09 06:27:13;;;;;;;;;;;;;;;;;;6296458;28;19928;-53
2023/08/09 06:30:13;;;;;;;;;;;;;;;;;;6294223;28;20294;-52
2023/08/09 06:33:14;;;;;;;;;;;;;;;;;;6295546;28;21679;-56
2023/08/09 06:36:15;;;;;;;;;;;;;;;;;;6277892;28;19931;-56
2023/08/09 06:39:15;;;;;;;;;;;;;;;;;;6297411;28;19924;-55
2023/08/09 06:42:16;;;;;;;;;;;;;;;;;;6297821;28;20279;-54
2023/08/09 06:45:17;;;;;;;;;;;;;;;;;;6292491;28;19920;-55
2023/08/09 06:48:17;;;;;;;;;;;;;;;;;;6294215;28;19952;-55
2023/08/09 06:51:18;;;;;;;;;;;;;;;;;;6296919;28;20350;-59
2023/08/09 06:54:19;;;;;;;;;;;;;;;;;;6293751;28;19921;-53
2023/08/09 06:57:19;;;;;;;;;;;;;;;;;;6294648;28;21116;-55
2023/08/09 07:00:20;;;;;;;;;;;;;;;;;;6296141;28;20020;-51
2023/08/09 07:03:20;;;;;;;;;;;;;;;;;;6294329;28;19927;-52
2023/08/09 07:06:21;;;;;;;;;;;;;;;;;;6294072;28;19935;-53
2023/08/09 07:09:22;;;;;;;;;;;;;;;;;;6294697;28;19924;-55
2023/08/09 07:12:23;;;;;;;;;;;;;;;;;;6296611;28;19924;-53
2023/08/09 07:15:24;;;;;;;;;;;;;;;;;;6299849;28;19966;-53
2023/08/09 07:18:25;;;;;;;;;;;;;;;;;;6294398;28;19940;-54
2023/08/09 07:21:27;;;;;;;;;;;;;;;;;;6296980;28;19930;-54
2023/08/09 07:24:28;;;;;;;;;;;;;;;;;;6293582;28;19924;-53
2023/08/09 07:27:28;;;;;;;;;;;;;;;;;;6292959;28;19920;-55
2023/08/09 07:30:29;;;;;;;;;;;;;;;;;;6293491;28;19924;-55
2023/08/09 07:33:29;;;;;;;;;;;;;;;;;;6294019;28;19947;-53
2023/08/09 07:36:30;;;;;;;;;;;;;;;;;;6293826;28;20380;-55
2023/08/09 07:39:31;;;;;;;;;;;;;;;;;;6290097;28;20313;-55
2023/08/09 07:42:31;;;;;;;;;;;;;;;;;;6293266;28;19924;-55
2023/08/09 07:45:32;;;;;;;;;;;;;;;;;;6293508;28;19928;-55
2023/08/09 07:48:33;;;;;;;;;;;;;;;;;;6292551;28;20005;-54
2023/08/09 07:51:33;;;;;;;;;;;;;;;;;;6277313;28;19942;-53
2023/08/09 07:54:34;;;;;;;;;;;;;;;;;;6291767;28;20674;-53
2023/08/09 07:57:35;;;;;;;;;;;;;;;;;;6297166;28;19924;-54
2023/08/09 08:00:35;;;;;;;;;;;;;;;;;;6298404;28;19950;-53
2023/08/09 08:03:36;;;;;;;;;;;;;;;;;;6297900;28;19993;-51
2023/08/09 08:06:36;;;;;;;;;;;;;;;;;;6296840;28;19932;-55
2023/08/09 08:09:41;;;;;;;;;;;;;;;;;;6296984;28;19924;-54
2023/08/09 08:12:45;;;;;;;;;;;;;;;;;;6297571;28;19920;-55
2023/08/09 08:15:46;;;;;;;;;;;;;;;;;;6294606;28;20334;-55
2023/08/09 08:18:46;;;;;;;;;;;;;;;;;;6296451;28;19924;-53
2023/08/09 08:21:48;;;;;;;;;;;;;;;;;;6296124;28;20515;-58
2023/08/09 08:24:49;;;;;;;;;;;;;;;;;;6294981;28;19930;-55
2023/08/09 08:27:50;;;;;;;;;;;;;;;;;;6299920;28;19928;-56
2023/08/09 08:30:50;;;;;;;;;;;;;;;;;;6298679;28;19924;-56
2023/08/09 08:33:51;;;;;;;;;;;;;;;;;;6297902;28;19928;-58
2023/08/09 08:36:51;;;;;;;;;;;;;;;;;;6300568;28;20356;-56
2023/08/09 08:39:53;;;;;;;;;;;;;;;;;;6299742;28;19970;-56
2023/08/09 08:42:54;;;;;;;;;;;;;;;;;;6297572;28;19965;-52
2023/08/09 08:45:55;;;;;;;;;;;;;;;;;;6293742;28;20384;-55
2023/08/09 08:48:57;;;;;;;;;;;;;;;;;;6292291;28;19982;-57
2023/08/09 08:51:58;;;;;;;;;;;;;;;;;;6303272;28;19924;-55
2023/08/09 08:54:59;;;;;;;;;;;;;;;;;;6315216;28;19923;-52
2023/08/09 08:58:00;;;;;;;;;;;;;;;;;;6314013;28;19924;-54
2023/08/09 09:01:00;;;;;;;;;;;;;;;;;;6295318;28;19932;-55
2023/08/09 09:04:01;;;;;;;;;;;;;;;;;;6295450;28;19924;-56
2023/08/09 09:07:02;;;;;;;;;;;;;;;;;;6294673;28;20418;-61
2023/08/09 09:10:04;;;;;;;;;;;;;;;;;;6296165;28;20657;-53
2023/08/09 09:13:05;;;;;;;;;;;;;;;;;;6298393;28;19924;-57
2023/08/09 09:16:05;;;;;;;;;;;;;;;;;;6296092;28;19920;-54
2023/08/09 09:19:06;;;;;;;;;;;;;;;;;;6292762;28;20675;-55
2023/08/09 09:22:06;;;;;;;;;;;;;;;;;;6302036;28;19930;-56
2023/08/09 09:25:10;;;;;;;;;;;;;;;;;;6296279;28;19931;-53
2023/08/09 09:28:18;;;;;;;;;;;;;;;;;;6293200;28;19925;-55
2023/08/09 09:31:18;;;;;;;;;;;;;;;;;;6295907;28;19928;-55
2023/08/09 09:34:25;;;;;;;;;;;;;;;;;;6292510;28;20001;-51
2023/08/09 09:37:27;;;;;;;;;;;;;;;;;;6291620;28;20032;-54
2023/08/09 09:40:31;;;;;;;;;;;;;;;;;;6295836;28;20000;-55
2023/08/09 09:43:33;;;;;;;;;;;;;;;;;;6294530;28;19927;-56
2023/08/09 09:46:39;;;;;;;;;;;;;;;;;;6296332;28;19928;-55
2023/08/09 09:49:50;;;;;;;;;;;;;;;;;;6293973;28;19935;-57
2023/08/09 09:52:51;;;;;;;;;;;;;;;;;;6295414;28;20415;-58
2023/08/09 09:55:52;;;;;;;;;;;;;;;;;;6292616;28;19927;-54
2023/08/09 09:58:53;;;;;;;;;;;;;;;;;;6294435;28;20588;-56
2023/08/09 10:01:53;;;;;;;;;;;;;;;;;;6294502;28;19920;-57
2023/08/09 10:04:54;;;;;;;;;;;;;;;;;;6291775;28;19920;-55
2023/08/09 10:07:56;;;;;;;;;;;;;;;;;;6293879;28;19932;-56
2023/08/09 10:10:59;;;;;;;;;;;;;;;;;;6294326;28;19935;-56
2023/08/09 10:14:00;;;;;;;;;;;;;;;;;;6294969;28;19931;-54
2023/08/09 10:17:02;;;;;;;;;;;;;;;;;;6295223;28;19935;-55
2023/08/09 10:20:05;;;;;;;;;;;;;;;;;;6297287;28;20409;-52
2023/08/09 10:23:06;;;;;;;;;;;;;;;;;;6296820;28;19928;-54
2023/08/09 10:26:09;;;;;;;;;;;;;;;;;;6293887;28;19924;-55
2023/08/09 10:29:12;;;;;;;;;;;;;;;;;;6291072;28;19924;-52
2023/08/09 10:32:12;;;;;;;;;;;;;;;;;;6294625;28;19959;-53
2023/08/09 10:35:17;;;;;;;;;;;;;;;;;;6295819;28;20660;-63
2023/08/09 10:38:38;;;;;;;;;;;;;;;;;;6291919;28;19926;-65
2023/08/09 10:41:52;;;;;;;;;;;;;;;;;;6294310;28;19921;-54
2023/08/09 10:45:02;;;;;;;;;;;;;;;;;;6292375;28;20003;-55
2023/08/09 10:48:22;;;;;;;;;;;;;;;;;;6296203;28;19928;-54
2023/08/09 10:51:23;;;;;;;;;;;;;;;;;;6295833;28;20754;-56
2023/08/09 10:54:24;;;;;;;;;;;;;;;;;;6295312;28;19978;-55
2023/08/09 10:57:39;;;;;;;;;;;;;;;;;;6293804;28;19931;-57
2023/08/09 11:00:41;;;;;;;;;;;;;;;;;;6292715;28;19920;-52
2023/08/09 11:03:42;;;;;;;;;;;;;;;;;;6293790;28;19921;-54
2023/08/09 11:06:43;;;;;;;;;;;;;;;;;;6293619;28;19944;-53
2023/08/09 11:09:44;;;;;;;;;;;;;;;;;;6293395;28;19947;-55
2023/08/09 11:12:45;;;;;;;;;;;;;;;;;;6292545;28;19924;-54
2023/08/09 11:15:46;;;;;;;;;;;;;;;;;;6292626;28;19950;-52
2023/08/09 11:18:47;;;;;;;;;;;;;;;;;;6294690;28;19924;-55
2023/08/09 11:21:49;;;;;;;;;;;;;;;;;;6295807;28;19928;-57
2023/08/09 11:24:49;;;;;;;;;;;;;;;;;;6295680;28;19936;-55
2023/08/09 11:27:54;;;;;;;;;;;;;;;;;;6292432;28;19928;-52
2023/08/09 11:30:55;;;;;;;;;;;;;;;;;;6299905;28;19925;-57
2023/08/09 11:33:57;;;;;;;;;;;;;;;;;;6297372;28;19931;-58
2023/08/09 11:36:58;;;;;;;;;;;;;;;;;;6299328;28;19931;-58
2023/08/09 11:39:59;;;;;;;;;;;;;;;;;;6295188;28;20327;-56
2023/08/09 11:42:59;;;;;;;;;;;;;;;;;;6295243;28;20298;-54
2023/08/09 11:46:00;;;;;;;;;;;;;;;;;;6297365;28;20397;-56
2023/08/09 11:49:04;;;;;;;;;;;;;;;;;;6300061;28;19931;-55
2023/08/09 11:52:04;;;;;;;;;;;;;;;;;;6301378;28;19928;-55
2023/08/09 11:55:06;;;;;;;;;;;;;;;;;;6306561;28;20016;-56
2023/08/09 11:58:07;;;;;;;;;;;;;;;;;;6304221;28;19991;-55
2023/08/09 12:01:12;;;;;;;;;;;;;;;;;;6308748;28;20525;-55
2023/08/09 12:04:17;;;;;;;;;;;;;;;;;;6305496;28;19927;-55
2023/08/09 12:07:21;;;;;;;;;;;;;;;;;;6304657;28;19954;-54
2023/08/09 12:10:22;;;;;;;;;;;;;;;;;;6291380;28;19928;-56
2023/08/09 12:13:23;;;;;;;;;;;;;;;;;;6307559;28;20420;-55
2023/08/09 12:16:24;;;;;;;;;;;;;;;;;;6307970;28;21561;-57
2023/08/09 12:19:25;;;;;;;;;;;;;;;;;;6305441;28;20026;-57
2023/08/09 12:22:26;;;;;;;;;;;;;;;;;;6306188;28;20348;-53
2023/08/09 12:25:27;;;;;;;;;;;;;;;;;;6305459;28;19932;-57
2023/08/09 12:28:27;;;;;;;;;;;;;;;;;;6303891;28;19993;-55
2023/08/09 12:31:28;;;;;;;;;;;;;;;;;;6309230;28;19924;-55
2023/08/09 12:34:28;;;;;;;;;;;;;;;;;;6303737;28;19928;-55
2023/08/09 12:37:29;;;;;;;;;;;;;;;;;;6305617;28;20389;-56
2023/08/09 12:40:29;;;;;;;;;;;;;;;;;;6309500;28;19935;-56
2023/08/09 12:43:30;;;;;;;;;;;;;;;;;;6287923;28;20058;-53
2023/08/09 12:46:31;;;;;;;;;;;;;;;;;;6305319;28;20521;-55
2023/08/09 12:49:32;;;;;;;;;;;;;;;;;;6304338;28;20007;-55
2023/08/09 12:52:32;;;;;;;;;;;;;;;;;;6304821;28;19931;-59
2023/08/09 12:55:33;;;;;;;;;;;;;;;;;;6306637;28;19927;-55
2023/08/09 12:58:33;;;;;;;;;;;;;;;;;;6304955;28;20398;-58
2023/08/09 13:01:35;;;;;;;;;;;;;;;;;;6306259;28;19929;-56
2023/08/09 13:04:36;;;;;;;;;;;;;;;;;;6287485;28;19938;-56
2023/08/09 13:07:36;;;;;;;;;;;;;;;;;;6301055;28;19928;-57
2023/08/09 13:10:37;;;;;;;;;;;;;;;;;;6305985;28;19920;-56
2023/08/09 13:13:38;;;;;;;;;;;;;;;;;;6303667;28;19947;-56
2023/08/09 13:16:39;;;;;;;;;;;;;;;;;;6303818;28;19924;-56
2023/08/09 13:19:39;;;;;;;;;;;;;;;;;;6305328;28;20244;-54
2023/08/09 13:22:40;;;;;;;;;;;;;;;;;;6303260;28;19931;-55
2023/08/09 13:25:41;;;;;;;;;;;;;;;;;;6303064;28;19930;-57
2023/08/09 13:28:41;;;;;;;;;;;;;;;;;;6302387;28;20438;-55
2023/08/09 13:31:42;;;;;;;;;;;;;;;;;;6300892;28;20288;-55
2023/08/09 13:34:42;;;;;;;;;;;;;;;;;;6303546;28;20402;-57
2023/08/09 13:37:43;;;;;;;;;;;;;;;;;;6306703;28;19935;-57
2023/08/09 13:40:43;;;;;;;;;;;;;;;;;;6308269;28;19923;-56
2023/08/09 13:43:44;;;;;;;;;;;;;;;;;;6304031;28;19934;-58
2023/08/09 13:46:44;;;;;;;;;;;;;;;;;;6305378;28;19928;-59
2023/08/09 13:49:45;;;;;;;;;;;;;;;;;;6308540;28;19954;-56
2023/08/09 13:52:45;;;;;;;;;;;;;;;;;;6304355;28;19928;-56
2023/08/09 13:55:46;;;;;;;;;;;;;;;;;;6307746;28;19934;-58
2023/08/09 13:58:46;;;;;;;;;;;;;;;;;;6305858;28;21473;-54
2023/08/09 14:01:47;;;;;;;;;;;;;;;;;;6309067;28;20342;-57
2023/08/09 14:04:48;;;;;;;;;;;;;;;;;;6311712;28;21737;-51
2023/08/09 14:07:48;;;;;;;;;;;;;;;;;;6313018;28;19927;-55
2023/08/09 14:10:49;;;;;;;;;;;;;;;;;;6313356;28;19923;-52
2023/08/09 14:13:49;;;;;;;;;;;;;;;;;;6314609;28;19927;-55
2023/08/09 14:16:53;;;;;;;;;;;;;;;;;;6317710;28;19943;-54
2023/08/09 14:19:54;;;;;;;;;;;;;;;;;;6316258;28;20127;-57
2023/08/09 14:22:54;;;;;;;;;;;;;;;;;;6315860;28;20014;-53
2023/08/09 14:25:55;;;;;;;;;;;;;;;;;;6315189;28;19977;-55
2023/08/09 14:28:55;;;;;;;;;;;;;;;;;;6310317;28;19928;-54
2023/08/09 14:31:56;;;;;;;;;;;;;;;;;;6310456;28;19993;-57
2023/08/09 14:34:56;;;;;;;;;;;;;;;;;;6316209;28;19939;-52
2023/08/09 14:37:57;;;;;;;;;;;;;;;;;;6314531;28;19934;-52
2023/08/09 14:40:58;;;;;;;;;;;;;;;;;;6315485;28;19927;-51
2023/08/09 14:43:58;;;;;;;;;;;;;;;;;;6318208;28;20473;-56
2023/08/09 14:46:59;;;;;;;;;;;;;;;;;;6307125;28;19931;-53
2023/08/09 14:49:59;;;;;;;;;;;;;;;;;;6311643;28;19924;-56
2023/08/09 14:53:00;;;;;;;;;;;;;;;;;;6317591;28;19968;-58
2023/08/09 14:56:02;;;;;;;;;;;;;;;;;;6313154;28;19920;-57
2023/08/09 14:59:02;;;;;;;;;;;;;;;;;;6310486;28;19928;-58
2023/08/09 15:02:03;;;;;;;;;;;;;;;;;;6305908;28;19971;-60
2023/08/09 15:05:04;;;;;;;;;;;;;;;;;;6315543;28;20043;-58
2023/08/09 15:08:06;;;;;;;;;;;;;;;;;;6317386;28;19987;-58
2023/08/09 15:11:06;;;;;;;;;;;;;;;;;;6320975;28;19928;-59
2023/08/09 15:14:08;;;;;;;;;;;;;;;;;;6323184;28;19950;-59
2023/08/09 15:17:09;;;;;;;;;;;;;;;;;;6318504;28;19927;-59
2023/08/09 15:20:12;;;;;;;;;;;;;;;;;;6324643;28;20290;-55
2023/08/09 15:23:13;;;;;;;;;;;;;;;;;;6317972;28;19934;-58
2023/08/09 15:26:13;;;;;;;;;;;;;;;;;;6323071;28;19920;-59
2023/08/09 15:29:14;;;;;;;;;;;;;;;;;;6318813;28;19920;-56
2023/08/09 15:32:14;;;;;;;;;;;;;;;;;;6313938;28;19927;-56
2023/08/09 15:35:15;;;;;;;;;;;;;;;;;;6306586;28;19924;-53
2023/08/09 15:38:16;;;;;;;;;;;;;;;;;;6310574;28;19955;-55
2023/08/09 15:41:16;;;;;;;;;;;;;;;;;;6310252;28;20388;-55
2023/08/09 15:44:17;;;;;;;;;;;;;;;;;;6307147;28;19928;-56
2023/08/09 15:47:17;;;;;;;;;;;;;;;;;;6306655;28;19981;-55
2023/08/09 15:50:18;;;;;;;;;;;;;;;;;;6306365;28;19931;-54
2023/08/09 15:53:18;;;;;;;;;;;;;;;;;;6303575;28;19924;-54
2023/08/09 15:56:19;;;;;;;;;;;;;;;;;;6306476;28;19924;-54
2023/08/09 15:59:20;;;;;;;;;;;;;;;;;;6308521;28;19920;-55
2023/08/09 16:02:20;;;;;;;;;;;;;;;;;;6308440;28;20006;-53
2023/08/09 16:05:26;;;;;;;;;;;;;;;;;;6306330;28;19920;-54
2023/08/09 16:08:26;;;;;;;;;;;;;;;;;;6304212;28;19927;-53
2023/08/09 16:11:27;;;;;;;;;;;;;;;;;;6306403;28;19934;-53
2023/08/09 16:14:27;;;;;;;;;;;;;;;;;;6305624;28;21191;-56
2023/08/09 16:17:28;;;;;;;;;;;;;;;;;;6308843;28;19928;-51
2023/08/09 16:20:28;;;;;;;;;;;;;;;;;;6305705;28;19927;-54
2023/08/09 16:23:29;;;;;;;;;;;;;;;;;;6304882;28;20049;-54
2023/08/09 16:26:29;;;;;;;;;;;;;;;;;;6305289;28;19927;-53
2023/08/09 16:29:30;;;;;;;;;;;;;;;;;;6309079;28;19965;-56
2023/08/09 16:32:31;;;;;;;;;;;;;;;;;;6306794;28;20412;-54
2023/08/09 16:35:37;;;;;;;;;;;;;;;;;;6306627;28;19924;-52
2023/08/09 16:38:38;;;;;;;;;;;;;;;;;;6308490;28;19930;-55
2023/08/09 16:41:40;;;;;;;;;;;;;;;;;;6307460;28;19928;-55
2023/08/09 16:44:41;;;;;;;;;;;;;;;;;;6308173;28;19924;-54
2023/08/09 16:47:41;;;;;;;;;;;;;;;;;;6306354;28;19965;-53
2023/08/09 16:50:42;;;;;;;;;;;;;;;;;;6308802;28;20014;-54
2023/08/09 16:53:42;;;;;;;;;;;;;;;;;;6308210;28;20322;-52
2023/08/09 16:56:43;;;;;;;;;;;;;;;;;;6305666;28;19947;-54
2023/08/09 16:59:43;;;;;;;;;;;;;;;;;;6308798;28;19931;-52
2023/08/09 17:02:44;;;;;;;;;;;;;;;;;;6304549;28;20324;-52
2023/08/09 17:05:44;;;;;;;;;;;;;;;;;;6305543;28;19928;-51
2023/08/09 17:08:45;;;;;;;;;;;;;;;;;;6310528;28;19927;-55
2023/08/09 17:11:45;;;;;;;;;;;;;;;;;;6317173;28;19930;-55
2023/08/09 17:14:46;;;;;;;;;;;;;;;;;;6305355;28;20701;-55
2023/08/09 17:17:46;;;;;;;;;;;;;;;;;;6311541;28;19927;-56
2023/08/09 17:20:47;;;;;;;;;;;;;;;;;;6318391;28;19987;-53
2023/08/09 17:23:47;;;;;;;;;;;;;;;;;;6314089;28;19973;-54
2023/08/09 17:26:48;;;;;;;;;;;;;;;;;;6311805;28;19972;-57
2023/08/09 17:29:49;;;;;;;;;;;;;;;;;;6318723;28;20685;-57
2023/08/09 17:32:49;;;;;;;;;;;;;;;;;;6317578;28;20069;-56
2023/08/09 17:35:50;;;;;;;;;;;;;;;;;;6323071;28;20283;-55
2023/08/09 17:38:50;;;;;;;;;;;;;;;;;;6308603;28;19927;-54
2023/08/09 17:41:51;;;;;;;;;;;;;;;;;;6316810;28;19920;-56
2023/08/09 17:44:52;;;;;;;;;;;;;;;;;;6318596;28;19924;-51
2023/08/09 17:47:52;;;;;;;;;;;;;;;;;;6316328;28;20363;-60
2023/08/09 17:50:53;;;;;;;;;;;;;;;;;;6317905;28;19966;-56
2023/08/09 17:53:53;;;;;;;;;;;;;;;;;;6314744;28;19924;-57
2023/08/09 17:56:54;;;;;;;;;;;;;;;;;;6310573;28;19928;-53
2023/08/09 17:59:54;;;;;;;;;;;;;;;;;;6312980;28;19931;-54
2023/08/09 18:02:55;;;;;;;;;;;;;;;;;;6315220;28;19930;-54
2023/08/09 18:05:55;;;;;;;;;;;;;;;;;;6305537;28;19932;-57
2023/08/09 18:08:56;;;;;;;;;;;;;;;;;;6303134;28;20043;-57
2023/08/09 18:11:56;;;;;;;;;;;;;;;;;;6314143;28;20275;-58
2023/08/09 18:14:57;;;;;;;;;;;;;;;;;;6315547;28;19923;-52
2023/08/09 18:17:57;;;;;;;;;;;;;;;;;;6314662;28;19939;-52
2023/08/09 18:20:58;;;;;;;;;;;;;;;;;;6318913;28;20033;-52
2023/08/09 18:23:58;;;;;;;;;;;;;;;;;;6316946;28;20745;-54
2023/08/09 18:26:59;;;;;;;;;;;;;;;;;;6311312;28;20036;-52
2023/08/09 18:29:59;;;;;;;;;;;;;;;;;;6315285;28;19919;-52
2023/08/09 18:33:01;;;;;;;;;;;;;;;;;;6314740;28;19931;-55
2023/08/09 18:36:03;;;;;;;;;;;;;;;;;;6292850;28;19927;-52
2023/08/09 18:39:05;;;;;;;;;;;;;;;;;;6311482;28;19928;-54
2023/08/09 18:42:05;;;;;;;;;;;;;;;;;;6318801;28;19933;-54
2023/08/09 18:45:06;;;;;;;;;;;;;;;;;;6315683;28;20379;-55
2023/08/09 18:48:07;;;;;;;;;;;;;;;;;;6312972;28;19938;-52
2023/08/09 18:51:08;;;;;;;;;;;;;;;;;;6315493;28;20373;-56
2023/08/09 18:54:09;;;;;;;;;;;;;;;;;;6315179;28;19939;-54
2023/08/09 18:57:09;;;;;;;;;;;;;;;;;;6313253;28;19943;-54
2023/08/09 19:00:13;;;;;;;;;;;;;;;;;;6313700;28;19924;-55
2023/08/09 19:03:13;;;;;;;;;;;;;;;;;;6298988;28;19924;-55
2023/08/09 19:06:14;;;;;;;;;;;;;;;;;;6321043;28;19946;-51
2023/08/09 19:09:15;;;;;;;;;;;;;;;;;;6315104;28;19955;-53
2023/08/09 19:12:15;;;;;;;;;;;;;;;;;;6314545;28;19958;-54
2023/08/09 19:15:16;;;;;;;;;;;;;;;;;;6308867;28;19927;-54
2023/08/09 19:18:17;;;;;;;;;;;;;;;;;;6302104;28;20604;-52
2023/08/09 19:21:17;;;;;;;;;;;;;;;;;;6304682;28;19927;-55
2023/08/09 19:24:18;;;;;;;;;;;;;;;;;;6304605;28;19931;-52
2023/08/09 19:27:19;;;;;;;;;;;;;;;;;;6299323;28;20385;-55
2023/08/09 19:30:19;;;;;;;;;;;;;;;;;;6303098;28;19928;-52
2023/08/09 19:33:26;;;;;;;;;;;;;;;;;;6302236;28;19927;-55
2023/08/09 19:36:27;;;;;;;;;;;;;;;;;;6303439;28;19935;-55
2023/08/09 19:39:28;;;;;;;;;;;;;;;;;;6303322;28;20779;-52
2023/08/09 19:42:28;;;;;;;;;;;;;;;;;;6302255;28;21157;-50
2023/08/09 19:45:29;;;;;;;;;;;;;;;;;;6303744;28;19927;-54
2023/08/09 19:48:29;;;;;;;;;;;;;;;;;;6306927;28;20276;-54
2023/08/09 19:51:32;;;;;;;;;;;;;;;;;;6312089;28;19936;-55
2023/08/09 19:54:32;;;;;;;;;;;;;;;;;;6306104;28;19947;-56
2023/08/09 19:57:33;;;;;;;;;;;;;;;;;;6306376;28;19928;-49
2023/08/09 20:00:33;;;;;;;;;;;;;;;;;;6308108;28;19935;-55
2023/08/09 20:03:34;;;;;;;;;;;;;;;;;;6291135;28;19923;-52
2023/08/09 20:06:35;;;;;;;;;;;;;;;;;;6305915;28;21451;-53
2023/08/09 20:09:36;;;;;;;;;;;;;;;;;;6306191;28;20633;-55
2023/08/09 20:12:37;;;;;;;;;;;;;;;;;;6309904;28;19924;-54
2023/08/09 20:15:38;;;;;;;;;;;;;;;;;;6310528;28;19928;-54
2023/08/09 20:18:39;;;;;;;;;;;;;;;;;;6306163;28;20409;-57
2023/08/09 20:21:40;;;;;;;;;;;;;;;;;;6310283;28;19959;-53
2023/08/09 20:24:43;;;;;;;;;;;;;;;;;;6309272;28;21436;-56
2023/08/09 20:27:44;;;;;;;;;;;;;;;;;;6308741;28;19923;-55
2023/08/09 20:30:45;;;;;;;;;;;;;;;;;;6309817;28;20768;-54
2023/08/09 20:33:45;;;;;;;;;;;;;;;;;;6308389;28;19924;-56
2023/08/09 20:36:46;;;;;;;;;;;;;;;;;;6306181;28;19928;-55